createdAt,value
2018-03-16T00:00:46.791Z,42.50
2018-03-16T00:01:46.943Z,43.20
2018-03-16T00:02:47.087Z,43.40
2018-03-16T00:03:47.236Z,43.30
2018-03-16T00:04:47.396Z,45.00
2018-03-16T00:05:47.532Z,45.10
2018-03-16T00:06:47.683Z,45.10
2018-03-16T00:07:47.834Z,46.20
2018-03-16T00:08:47.978Z,45.00
2018-03-16T00:09:48.128Z,45.50
2018-03-16T00:10:48.279Z,44.60
2018-03-16T00:11:48.426Z,45.80
2018-03-16T00:12:48.574Z,44.90
2018-03-16T00:13:48.720Z,45.90
2018-03-16T00:14:48.871Z,46.50
2018-03-16T00:15:49.018Z,46.00
2018-03-16T00:16:49.167Z,46.60
2018-03-16T00:17:49.314Z,46.00
2018-03-16T00:18:49.465Z,44.90
2018-03-16T00:19:49.613Z,47.10
2018-03-16T00:20:49.763Z,47.70
2018-03-16T00:21:49.910Z,46.30
2018-03-16T00:22:50.057Z,46.80
2018-03-16T00:23:50.210Z,46.20
2018-03-16T00:24:50.362Z,47.50
2018-03-16T00:25:50.496Z,48.80
2018-03-16T00:26:50.643Z,48.10
2018-03-16T00:27:50.792Z,48.30
2018-03-16T00:28:50.940Z,48.10
2018-03-16T00:29:51.088Z,48.30
2018-03-16T00:30:51.234Z,48.40
2018-03-16T00:31:51.384Z,49.10
2018-03-16T00:32:51.534Z,48.70
2018-03-16T00:33:51.678Z,48.70
2018-03-16T00:34:51.826Z,50.50
2018-03-16T00:35:51.996Z,49.30
2018-03-16T00:36:52.121Z,51.50
2018-03-16T00:37:52.269Z,52.40
2018-03-16T00:38:52.419Z,50.70
2018-03-16T00:39:52.567Z,51.80
2018-03-16T00:40:52.716Z,50.90
2018-03-16T00:41:52.866Z,50.80
2018-03-16T00:42:53.014Z,52.70
2018-03-16T00:43:53.161Z,52.20
2018-03-16T00:44:53.306Z,52.60
2018-03-16T00:45:53.454Z,54.30
2018-03-16T00:46:53.602Z,53.80
2018-03-16T00:47:53.749Z,51.60
2018-03-16T00:48:53.903Z,52.80
2018-03-16T00:49:54.044Z,54.10
2018-03-16T00:50:54.192Z,54.60
2018-03-16T00:51:54.336Z,54.20
2018-03-16T00:52:55.161Z,53.10
2018-03-16T00:53:54.592Z,54.70
2018-03-16T00:54:54.738Z,53.00
2018-03-16T00:55:54.885Z,54.30
2018-03-16T00:56:55.033Z,53.40
2018-03-16T00:57:55.181Z,52.70
2018-03-16T00:58:55.334Z,53.40
2018-03-16T00:59:55.477Z,53.20
2018-03-16T01:00:55.627Z,52.30
2018-03-16T01:01:55.774Z,53.20
2018-03-16T01:02:55.920Z,54.20
2018-03-16T01:03:56.071Z,54.90
2018-03-16T01:04:56.219Z,54.60
2018-03-16T01:05:56.370Z,56.40
2018-03-16T01:06:56.520Z,55.00
2018-03-16T01:07:56.666Z,55.50
2018-03-16T01:08:56.815Z,56.90
2018-03-16T01:09:56.964Z,57.60
2018-03-16T01:10:57.110Z,57.80
2018-03-16T01:11:57.260Z,59.10
2018-03-16T01:12:57.407Z,59.80
2018-03-16T01:13:57.554Z,60.50
2018-03-16T01:14:57.701Z,61.40
2018-03-16T01:15:57.847Z,63.50
2018-03-16T01:16:57.997Z,60.80
2018-03-16T01:17:58.144Z,63.60
2018-03-16T01:18:58.292Z,61.20
2018-03-16T01:19:58.442Z,63.40
2018-03-16T01:20:58.587Z,64.10
2018-03-16T01:21:58.735Z,63.40
2018-03-16T01:22:58.880Z,64.10
2018-03-16T01:23:59.027Z,64.00
2018-03-16T01:24:59.176Z,62.60
2018-03-16T01:25:59.324Z,62.60
2018-03-16T01:26:59.472Z,63.20
2018-03-16T01:27:59.621Z,65.40
2018-03-16T01:28:59.768Z,64.90
2018-03-16T01:29:59.916Z,69.90
2018-03-16T01:31:00.066Z,67.00
2018-03-16T01:32:00.210Z,70.70
2018-03-16T01:33:00.359Z,70.10
2018-03-16T01:34:00.507Z,68.90
2018-03-16T01:35:00.654Z,65.40
2018-03-16T01:36:00.802Z,69.80
2018-03-16T01:37:00.951Z,66.90
2018-03-16T01:38:01.096Z,70.90
2018-03-16T01:39:01.242Z,67.10
2018-03-16T01:40:01.391Z,69.90
2018-03-16T01:41:01.539Z,68.40
2018-03-16T01:42:01.685Z,68.30
2018-03-16T01:43:01.834Z,69.40
2018-03-16T01:44:01.984Z,72.50
2018-03-16T01:45:02.128Z,69.30
2018-03-16T01:46:02.273Z,72.20
2018-03-16T01:47:02.442Z,75.10
2018-03-16T01:48:02.567Z,69.90
2018-03-16T01:49:02.716Z,71.00
2018-03-16T01:50:02.860Z,74.70
2018-03-16T01:51:03.009Z,73.60
2018-03-16T01:52:03.157Z,73.40
2018-03-16T01:53:03.305Z,72.30
2018-03-16T01:54:03.450Z,72.50
2018-03-16T01:55:03.599Z,71.50
2018-03-16T01:56:03.746Z,71.50
2018-03-16T01:57:03.895Z,71.50
2018-03-16T01:58:04.042Z,73.00
2018-03-16T01:59:04.191Z,72.50
2018-03-16T02:00:04.338Z,74.40
2018-03-16T02:01:04.485Z,72.30
2018-03-16T02:02:04.633Z,73.30
2018-03-16T02:03:04.779Z,72.10
2018-03-16T02:04:04.931Z,72.60
2018-03-16T02:05:05.076Z,73.10
2018-03-16T02:06:05.222Z,75.10
2018-03-16T02:07:05.369Z,75.50
2018-03-16T02:08:05.515Z,76.00
2018-03-16T02:09:05.664Z,75.20
2018-03-16T02:10:05.808Z,72.70
2018-03-16T02:11:05.957Z,71.50
2018-03-16T02:12:06.107Z,73.50
2018-03-16T02:13:06.252Z,66.90
2018-03-16T02:14:06.400Z,74.00
2018-03-16T02:15:06.545Z,70.50
2018-03-16T02:16:06.683Z,73.60
2018-03-16T02:17:06.829Z,71.20
2018-03-16T02:18:06.976Z,72.10
2018-03-16T02:19:07.124Z,72.30
2018-03-16T02:20:07.273Z,74.20
2018-03-16T02:21:07.418Z,72.30
2018-03-16T02:22:07.565Z,71.20
2018-03-16T02:23:07.711Z,72.90
2018-03-16T02:24:07.859Z,73.80
2018-03-16T02:25:08.006Z,71.30
2018-03-16T02:26:08.150Z,75.60
2018-03-16T02:27:08.297Z,74.80
2018-03-16T02:28:08.445Z,74.60
2018-03-16T02:29:08.590Z,71.70
2018-03-16T02:30:08.740Z,75.30
2018-03-16T02:31:08.884Z,71.30
2018-03-16T02:32:09.035Z,72.20
2018-03-16T02:33:09.180Z,77.20
2018-03-16T02:34:09.327Z,71.90
2018-03-16T02:35:09.472Z,76.50
2018-03-16T02:36:09.622Z,77.30
2018-03-16T02:37:09.769Z,76.10
2018-03-16T02:38:09.915Z,77.90
2018-03-16T02:39:10.061Z,73.40
2018-03-16T02:40:10.205Z,74.70
2018-03-16T02:41:10.350Z,81.20
2018-03-16T02:42:10.500Z,78.40
2018-03-16T02:43:10.646Z,80.00
2018-03-16T02:44:10.793Z,79.10
2018-03-16T02:45:10.940Z,73.20
2018-03-16T02:46:11.083Z,80.10
2018-03-16T02:47:11.229Z,81.20
2018-03-16T02:48:11.376Z,80.20
2018-03-16T02:49:11.525Z,79.10
2018-03-16T02:50:11.673Z,73.00
2018-03-16T02:51:11.819Z,78.40
2018-03-16T02:52:11.975Z,77.50
2018-03-16T02:53:12.111Z,83.60
2018-03-16T02:54:12.260Z,74.60
2018-03-16T02:55:12.409Z,80.80
2018-03-16T02:56:12.556Z,80.80
2018-03-16T02:57:12.705Z,85.30
2018-03-16T02:58:12.848Z,74.10
2018-03-16T02:59:12.998Z,82.50
2018-03-16T03:00:13.139Z,73.20
2018-03-16T03:01:13.291Z,76.10
2018-03-16T03:02:13.436Z,78.50
2018-03-16T03:03:13.582Z,78.30
2018-03-16T03:04:13.759Z,79.90
2018-03-16T03:05:13.873Z,83.20
2018-03-16T03:06:14.020Z,77.30
2018-03-16T03:07:14.166Z,70.50
2018-03-16T03:08:14.315Z,74.00
2018-03-16T03:09:14.462Z,74.40
2018-03-16T03:10:14.606Z,79.80
2018-03-16T03:11:14.754Z,70.80
2018-03-16T03:12:14.904Z,68.10
2018-03-16T03:13:15.046Z,73.10
2018-03-16T03:14:15.194Z,73.90
2018-03-16T03:15:15.340Z,72.40
2018-03-16T03:16:15.486Z,69.30
2018-03-16T03:17:15.631Z,68.90
2018-03-16T03:18:15.778Z,66.60
2018-03-16T03:19:15.927Z,62.70
2018-03-16T03:20:16.074Z,64.50
2018-03-16T03:21:16.222Z,71.90
2018-03-16T03:22:16.369Z,68.60
2018-03-16T03:23:16.512Z,67.90
2018-03-16T03:24:16.659Z,73.50
2018-03-16T03:25:16.804Z,70.40
2018-03-16T03:26:16.950Z,65.80
2018-03-16T03:27:17.097Z,65.10
2018-03-16T03:28:17.244Z,63.60
2018-03-16T03:29:17.392Z,65.90
2018-03-16T03:30:17.540Z,61.70
2018-03-16T03:31:17.688Z,60.10
2018-03-16T03:32:17.830Z,63.10
2018-03-16T03:33:17.974Z,63.80
2018-03-16T03:34:18.174Z,62.30
2018-03-16T03:35:18.276Z,58.40
2018-03-16T03:36:18.423Z,59.80
2018-03-16T03:37:18.571Z,58.70
2018-03-16T03:38:18.717Z,57.80
2018-03-16T03:39:18.867Z,57.90
2018-03-16T03:40:19.011Z,57.80
2018-03-16T03:41:19.159Z,58.60
2018-03-16T03:42:19.308Z,57.70
2018-03-16T03:43:19.456Z,58.40
2018-03-16T03:44:19.604Z,54.90
2018-03-16T03:45:19.748Z,59.40
2018-03-16T03:46:19.895Z,54.70
2018-03-16T03:47:20.039Z,52.40
2018-03-16T03:48:20.188Z,55.90
2018-03-16T03:49:20.333Z,56.10
2018-03-16T03:50:20.478Z,54.90
2018-03-16T03:51:20.624Z,53.40
2018-03-16T03:52:20.772Z,54.60
2018-03-16T03:53:20.918Z,50.50
2018-03-16T03:54:21.064Z,54.10
2018-03-16T03:55:21.213Z,54.80
2018-03-16T03:56:21.361Z,51.10
2018-03-16T03:57:21.508Z,55.60
2018-03-16T03:58:21.654Z,54.90
2018-03-16T03:59:21.802Z,52.30
2018-03-16T04:00:21.948Z,53.80
2018-03-16T04:01:22.093Z,53.60
2018-03-16T04:02:22.241Z,50.30
2018-03-16T04:03:22.389Z,53.40
2018-03-16T04:04:22.537Z,52.30
2018-03-16T04:05:22.681Z,48.90
2018-03-16T04:06:22.827Z,48.70
2018-03-16T04:07:22.973Z,54.10
2018-03-16T04:08:23.119Z,51.40
2018-03-16T04:09:23.265Z,51.30
2018-03-16T04:10:23.410Z,50.50
2018-03-16T04:11:23.554Z,48.60
2018-03-16T04:12:23.702Z,52.80
2018-03-16T04:13:23.846Z,49.50
2018-03-16T04:14:23.993Z,49.10
2018-03-16T04:15:24.139Z,51.10
2018-03-16T04:16:24.286Z,49.70
2018-03-16T04:17:24.436Z,47.00
2018-03-16T04:18:24.597Z,46.50
2018-03-16T04:19:24.718Z,51.40
2018-03-16T04:20:24.865Z,49.30
2018-03-16T04:21:25.012Z,48.90
2018-03-16T04:22:25.160Z,48.10
2018-03-16T04:23:25.313Z,48.10
2018-03-16T04:24:25.455Z,47.00
2018-03-16T04:25:25.607Z,48.40
2018-03-16T04:26:25.750Z,49.10
2018-03-16T04:27:25.898Z,47.30
2018-03-16T04:28:26.047Z,47.50
2018-03-16T04:29:26.190Z,48.80
2018-03-16T04:30:26.335Z,45.60
2018-03-16T04:31:26.483Z,47.00
2018-03-16T04:32:26.628Z,47.60
2018-03-16T04:33:26.777Z,43.50
2018-03-16T04:34:26.924Z,48.00
2018-03-16T04:35:27.071Z,46.20
2018-03-16T04:36:27.219Z,48.20
2018-03-16T04:37:27.367Z,46.70
2018-03-16T04:38:27.510Z,45.10
2018-03-16T04:39:27.658Z,47.20
2018-03-16T04:40:27.804Z,49.80
2018-03-16T04:41:27.949Z,48.90
2018-03-16T04:42:28.095Z,43.00
2018-03-16T04:43:28.299Z,47.30
2018-03-16T04:44:28.388Z,47.90
2018-03-16T04:45:28.535Z,45.60
2018-03-16T04:46:28.680Z,45.30
2018-03-16T04:47:28.824Z,47.90
2018-03-16T04:48:28.973Z,45.70
2018-03-16T04:49:29.117Z,45.40
2018-03-16T04:50:29.265Z,44.80
2018-03-16T04:51:29.408Z,45.40
2018-03-16T04:52:29.556Z,44.70
2018-03-16T04:53:29.701Z,45.10
2018-03-16T04:54:29.849Z,48.00
2018-03-16T04:55:29.993Z,45.70
2018-03-16T04:56:30.140Z,50.60
2018-03-16T04:57:30.287Z,43.80
2018-03-16T04:58:30.436Z,43.70
2018-03-16T04:59:30.583Z,48.30
2018-03-16T05:00:30.728Z,48.70
2018-03-16T05:01:30.869Z,42.00
2018-03-16T05:02:31.015Z,45.60
2018-03-16T05:03:31.164Z,48.40
2018-03-16T05:04:31.309Z,44.70
2018-03-16T05:05:31.455Z,45.20
2018-03-16T05:06:31.602Z,48.50
2018-03-16T05:07:31.750Z,46.40
2018-03-16T05:08:31.897Z,47.80
2018-03-16T05:09:32.041Z,44.60
2018-03-16T05:10:32.187Z,45.50
2018-03-16T05:11:32.333Z,46.00
2018-03-16T05:12:32.480Z,44.00
2018-03-16T05:13:32.624Z,45.40
2018-03-16T05:14:32.773Z,42.60
2018-03-16T05:15:32.919Z,45.30
2018-03-16T05:16:33.064Z,44.40
2018-03-16T05:17:33.212Z,44.00
2018-03-16T05:18:33.360Z,41.70
2018-03-16T05:19:33.506Z,44.30
2018-03-16T05:20:33.651Z,43.00
2018-03-16T05:21:33.799Z,41.70
2018-03-16T05:22:33.946Z,43.80
2018-03-16T05:23:34.091Z,41.50
2018-03-16T05:24:34.236Z,45.00
2018-03-16T05:25:34.383Z,45.00
2018-03-16T05:26:34.530Z,42.70
2018-03-16T05:27:34.676Z,42.20
2018-03-16T05:28:34.823Z,42.50
2018-03-16T05:29:34.969Z,47.10
2018-03-16T05:30:35.119Z,46.40
2018-03-16T05:31:35.264Z,41.60
2018-03-16T05:32:35.410Z,44.60
2018-03-16T05:33:35.562Z,41.80
2018-03-16T05:34:35.708Z,41.00
2018-03-16T05:35:35.855Z,41.90
2018-03-16T05:36:36.001Z,38.80
2018-03-16T05:37:36.146Z,43.90
2018-03-16T05:38:36.293Z,44.80
2018-03-16T05:39:36.439Z,42.60
2018-03-16T05:40:36.586Z,44.80
2018-03-16T05:41:36.732Z,38.10
2018-03-16T05:42:36.879Z,42.30
2018-03-16T05:43:37.026Z,39.40
2018-03-16T05:44:37.171Z,42.90
2018-03-16T05:45:37.314Z,44.20
2018-03-16T05:46:37.457Z,42.40
2018-03-16T05:47:37.606Z,42.40
2018-03-16T05:48:37.753Z,42.10
2018-03-16T05:49:37.950Z,44.40
2018-03-16T05:50:38.061Z,44.80
2018-03-16T05:51:38.199Z,47.10
2018-03-16T05:52:38.360Z,44.40
2018-03-16T05:53:38.497Z,43.00
2018-03-16T05:54:38.623Z,45.70
2018-03-16T05:55:38.753Z,43.20
2018-03-16T05:56:38.905Z,42.20
2018-03-16T05:57:39.052Z,44.30
2018-03-16T05:58:39.185Z,45.30
2018-03-16T05:59:39.332Z,40.00
2018-03-16T06:00:39.478Z,42.00
2018-03-16T06:01:39.626Z,43.00
2018-03-16T06:02:39.775Z,43.10
2018-03-16T06:03:39.920Z,44.50
2018-03-16T06:04:40.096Z,45.30
2018-03-16T06:05:40.218Z,43.90
2018-03-16T06:06:40.367Z,42.20
2018-03-16T06:07:40.513Z,42.20
2018-03-16T06:08:40.658Z,43.60
2018-03-16T06:09:40.806Z,42.50
2018-03-16T06:10:40.950Z,42.80
2018-03-16T06:11:41.102Z,44.40
2018-03-16T06:12:41.243Z,43.00
2018-03-16T06:13:41.389Z,42.10
2018-03-16T06:14:41.535Z,42.60
2018-03-16T06:15:41.682Z,39.50
2018-03-16T06:16:41.827Z,41.10
2018-03-16T06:17:41.975Z,39.80
2018-03-16T06:18:42.123Z,38.50
2018-03-16T06:19:42.271Z,42.50
2018-03-16T06:20:42.417Z,43.80
2018-03-16T06:21:42.563Z,39.70
2018-03-16T06:22:42.709Z,41.90
2018-03-16T06:23:42.871Z,43.70
2018-03-16T06:24:43.004Z,41.80
2018-03-16T06:25:43.152Z,37.70
2018-03-16T06:26:43.300Z,41.60
2018-03-16T06:27:43.445Z,40.40
2018-03-16T06:28:43.590Z,35.90
2018-03-16T06:29:43.734Z,42.10
2018-03-16T06:30:43.876Z,39.10
2018-03-16T06:31:44.023Z,37.80
2018-03-16T06:32:44.169Z,40.90
2018-03-16T06:33:44.314Z,46.00
2018-03-16T06:34:44.464Z,37.50
2018-03-16T06:35:44.609Z,38.80
2018-03-16T06:36:44.755Z,43.00
2018-03-16T06:37:44.902Z,42.20
2018-03-16T06:38:45.048Z,41.30
2018-03-16T06:39:45.196Z,38.60
2018-03-16T06:40:45.339Z,37.90
2018-03-16T06:41:45.488Z,41.10
2018-03-16T06:42:45.634Z,38.70
2018-03-16T06:43:45.780Z,39.10
2018-03-16T06:44:46.028Z,39.00
2018-03-16T06:45:46.073Z,36.70
2018-03-16T06:46:46.220Z,37.50
2018-03-16T06:47:46.369Z,38.10
2018-03-16T06:48:46.514Z,39.10
2018-03-16T06:49:46.660Z,40.20
2018-03-16T06:50:46.803Z,36.90
2018-03-16T06:51:46.952Z,36.10
2018-03-16T06:52:47.096Z,38.10
2018-03-16T06:53:47.232Z,36.20
2018-03-16T06:54:47.378Z,36.60
2018-03-16T06:55:47.524Z,34.70
2018-03-16T06:56:47.671Z,34.60
2018-03-16T06:57:47.820Z,35.80
2018-03-16T06:58:47.958Z,32.60
2018-03-16T06:59:48.100Z,33.60
2018-03-16T07:00:48.247Z,35.10
2018-03-16T07:01:48.391Z,35.70
2018-03-16T07:02:48.538Z,34.60
2018-03-16T07:03:48.684Z,33.30
2018-03-16T07:04:48.830Z,34.60
2018-03-16T07:05:48.978Z,36.40
2018-03-16T07:06:49.126Z,30.30
2018-03-16T07:07:49.270Z,37.10
2018-03-16T07:08:49.418Z,34.40
2018-03-16T07:09:49.564Z,33.50
2018-03-16T07:10:49.708Z,36.40
2018-03-16T07:11:49.855Z,37.50
2018-03-16T07:12:50.000Z,36.20
2018-03-16T07:13:50.155Z,35.90
2018-03-16T07:14:50.297Z,34.10
2018-03-16T07:15:50.445Z,36.80
2018-03-16T07:16:50.592Z,30.90
2018-03-16T07:17:50.743Z,31.40
2018-03-16T07:18:50.886Z,30.80
2018-03-16T07:19:51.034Z,32.10
2018-03-16T07:20:51.179Z,33.20
2018-03-16T07:21:51.334Z,35.90
2018-03-16T07:22:51.472Z,29.60
2018-03-16T07:23:51.617Z,33.20
2018-03-16T07:24:51.767Z,30.70
2018-03-16T07:25:51.911Z,29.40
2018-03-16T07:26:52.059Z,32.00
2018-03-16T07:27:52.195Z,29.10
2018-03-16T07:28:52.347Z,31.60
2018-03-16T07:29:52.488Z,32.60
2018-03-16T07:30:52.684Z,34.90
2018-03-16T07:31:52.767Z,31.00
2018-03-16T07:32:52.915Z,31.60
2018-03-16T07:33:53.060Z,30.10
2018-03-16T07:34:53.207Z,32.80
2018-03-16T07:35:53.351Z,29.80
2018-03-16T07:36:53.499Z,31.00
2018-03-16T07:37:53.643Z,28.40
2018-03-16T07:38:53.791Z,29.50
2018-03-16T07:39:53.936Z,30.90
2018-03-16T07:40:54.086Z,31.60
2018-03-16T07:41:54.230Z,29.90
2018-03-16T07:42:54.394Z,30.00
2018-03-16T07:43:54.515Z,28.80
2018-03-16T07:44:54.665Z,29.70
2018-03-16T07:45:54.814Z,28.40
2018-03-16T07:46:54.963Z,31.60
2018-03-16T07:47:55.106Z,29.00
2018-03-16T07:48:55.255Z,31.30
2018-03-16T07:49:55.400Z,26.60
2018-03-16T07:50:55.547Z,29.60
2018-03-16T07:51:55.691Z,26.90
2018-03-16T07:52:55.837Z,29.50
2018-03-16T07:53:55.992Z,26.90
2018-03-16T07:54:56.136Z,26.10
2018-03-16T07:55:56.285Z,26.90
2018-03-16T07:56:56.438Z,25.30
2018-03-16T07:57:56.577Z,31.80
2018-03-16T07:58:56.723Z,26.80
2018-03-16T07:59:56.881Z,25.60
2018-03-16T08:00:57.012Z,29.60
2018-03-16T08:01:57.156Z,28.30
2018-03-16T08:02:57.303Z,30.20
2018-03-16T08:03:57.449Z,27.70
2018-03-16T08:04:57.595Z,26.20
2018-03-16T08:05:57.747Z,25.00
2018-03-16T08:06:57.894Z,27.40
2018-03-16T08:07:58.041Z,26.00
2018-03-16T08:08:58.185Z,28.40
2018-03-16T08:09:58.332Z,26.80
2018-03-16T08:10:58.480Z,25.50
2018-03-16T08:11:58.627Z,23.90
2018-03-16T08:12:58.777Z,28.60
2018-03-16T08:13:58.920Z,26.20
2018-03-16T08:14:59.069Z,25.00
2018-03-16T08:15:59.215Z,31.70
2018-03-16T08:16:59.361Z,25.70
2018-03-16T08:17:59.509Z,22.30
2018-03-16T08:18:59.679Z,24.30
2018-03-16T08:19:59.801Z,24.60
2018-03-16T08:20:59.953Z,24.40
2018-03-16T08:22:00.102Z,25.30
2018-03-16T08:23:00.250Z,24.30
2018-03-16T08:24:00.398Z,24.50
2018-03-16T08:25:00.543Z,26.40
2018-03-16T08:26:00.692Z,29.30
2018-03-16T08:27:00.841Z,25.00
2018-03-16T08:28:00.998Z,26.30
2018-03-16T08:29:01.132Z,25.60
2018-03-16T08:30:01.281Z,28.80
2018-03-16T08:31:01.428Z,23.80
2018-03-16T08:32:01.659Z,25.80
2018-03-16T08:33:01.716Z,24.20
2018-03-16T08:34:01.901Z,22.00
2018-03-16T08:35:02.016Z,23.80
2018-03-16T08:36:02.156Z,25.30
2018-03-16T08:37:02.302Z,21.60
2018-03-16T08:38:02.450Z,24.50
2018-03-16T08:39:02.596Z,25.90
2018-03-16T08:40:02.743Z,29.40
2018-03-16T08:41:02.891Z,26.60
2018-03-16T08:42:03.038Z,22.10
2018-03-16T08:43:03.183Z,25.30
2018-03-16T08:44:03.333Z,22.60
2018-03-16T08:45:03.482Z,26.60
2018-03-16T08:46:03.686Z,26.30
2018-03-16T08:47:03.775Z,24.30
2018-03-16T08:48:03.921Z,23.60
2018-03-16T08:49:04.068Z,20.00
2018-03-16T08:50:04.215Z,23.20
2018-03-16T08:51:04.362Z,20.80
2018-03-16T08:52:04.502Z,21.20
2018-03-16T08:53:04.648Z,21.20
2018-03-16T08:54:04.796Z,20.80
2018-03-16T08:55:04.942Z,21.80
2018-03-16T08:56:05.093Z,20.20
2018-03-16T08:57:05.242Z,22.30
2018-03-16T08:58:05.388Z,20.00
2018-03-16T08:59:05.533Z,20.30
2018-03-16T09:00:05.682Z,22.70
2018-03-16T09:01:05.823Z,22.20
2018-03-16T09:02:05.975Z,23.40
2018-03-16T09:03:06.115Z,21.90
2018-03-16T09:04:06.261Z,20.80
2018-03-16T09:05:06.412Z,22.80
2018-03-16T09:06:06.561Z,22.20
2018-03-16T09:07:06.706Z,22.30
2018-03-16T09:08:06.861Z,24.60
2018-03-16T09:09:07.023Z,20.40
2018-03-16T09:10:07.168Z,21.00
2018-03-16T09:11:07.317Z,24.50
2018-03-16T09:12:07.461Z,23.20
2018-03-16T09:13:07.610Z,18.80
2018-03-16T09:14:07.757Z,20.70
2018-03-16T09:15:07.905Z,21.70
2018-03-16T09:16:08.092Z,20.10
2018-03-16T09:17:08.196Z,20.70
2018-03-16T09:18:08.345Z,19.00
2018-03-16T09:19:08.490Z,18.50
2018-03-16T09:20:08.637Z,18.60
2018-03-16T09:21:08.785Z,18.80
2018-03-16T09:22:08.931Z,20.70
2018-03-16T09:23:09.081Z,21.10
2018-03-16T09:24:09.229Z,19.20
2018-03-16T09:25:09.376Z,20.80
2018-03-16T09:26:09.522Z,19.40
2018-03-16T09:27:09.669Z,21.90
2018-03-16T09:28:09.814Z,20.30
2018-03-16T09:29:09.961Z,20.80
2018-03-16T09:30:10.108Z,21.20
2018-03-16T09:31:10.255Z,21.20
2018-03-16T09:32:10.402Z,20.80
2018-03-16T09:33:10.549Z,20.10
2018-03-16T09:34:10.696Z,20.90
2018-03-16T09:35:10.843Z,18.70
2018-03-16T09:36:10.989Z,18.80
2018-03-16T09:37:11.137Z,19.60
2018-03-16T09:38:11.282Z,18.00
2018-03-16T09:39:11.426Z,19.90
2018-03-16T09:40:11.571Z,22.30
2018-03-16T09:41:11.720Z,20.70
2018-03-16T09:42:11.871Z,18.00
2018-03-16T09:43:12.017Z,18.50
2018-03-16T09:44:12.165Z,19.70
2018-03-16T09:45:12.317Z,18.10
2018-03-16T09:46:12.464Z,18.20
2018-03-16T09:47:12.611Z,18.70
2018-03-16T09:48:12.755Z,21.00
2018-03-16T09:49:12.915Z,19.90
2018-03-16T09:50:13.064Z,19.80
2018-03-16T09:51:13.210Z,17.70
2018-03-16T09:52:13.361Z,18.40
2018-03-16T09:53:13.508Z,18.10
2018-03-16T09:54:13.654Z,19.60
2018-03-16T09:55:13.801Z,21.00
2018-03-16T09:56:13.951Z,19.50
2018-03-16T09:57:14.151Z,18.70
2018-03-16T09:58:14.254Z,20.00
2018-03-16T09:59:14.397Z,21.40
2018-03-16T10:00:14.543Z,20.30
2018-03-16T10:01:14.690Z,21.30
2018-03-16T10:02:14.839Z,23.40
2018-03-16T10:03:14.989Z,22.90
2018-03-16T10:04:15.136Z,25.70
2018-03-16T10:05:15.281Z,20.90
2018-03-16T10:06:15.428Z,20.20
2018-03-16T10:07:15.581Z,22.10
2018-03-16T10:08:15.730Z,21.80
2018-03-16T10:09:15.877Z,22.20
2018-03-16T10:10:16.023Z,21.10
2018-03-16T10:11:16.177Z,21.50
2018-03-16T10:12:16.343Z,22.90
2018-03-16T10:13:16.476Z,23.70
2018-03-16T10:14:16.620Z,23.50
2018-03-16T10:15:16.769Z,20.30
2018-03-16T10:16:16.916Z,20.30
2018-03-16T10:17:17.063Z,23.30
2018-03-16T10:18:17.216Z,22.00
2018-03-16T10:19:17.357Z,22.80
2018-03-16T10:20:17.503Z,20.20
2018-03-16T10:21:17.651Z,21.40
2018-03-16T10:22:17.799Z,23.30
2018-03-16T10:23:17.949Z,21.20
2018-03-16T10:24:18.099Z,21.30
2018-03-16T10:25:18.246Z,22.90
2018-03-16T10:26:18.391Z,23.70
2018-03-16T10:27:18.538Z,21.80
2018-03-16T10:28:18.686Z,22.70
2018-03-16T10:29:18.837Z,21.60
2018-03-16T10:30:19.016Z,23.10
2018-03-16T10:31:19.128Z,21.70
2018-03-16T10:32:19.274Z,23.30
2018-03-16T10:33:19.422Z,25.90
2018-03-16T10:34:19.569Z,26.20
2018-03-16T10:35:19.716Z,23.20
2018-03-16T10:36:19.860Z,22.20
2018-03-16T10:37:20.007Z,20.80
2018-03-16T10:38:20.149Z,21.90
2018-03-16T10:39:20.300Z,24.10
2018-03-16T10:40:20.445Z,25.00
2018-03-16T10:41:20.592Z,24.30
2018-03-16T10:42:20.742Z,24.30
2018-03-16T10:43:20.887Z,23.60
2018-03-16T10:44:21.032Z,23.50
2018-03-16T10:45:21.182Z,23.80
2018-03-16T10:46:21.328Z,22.60
2018-03-16T10:47:21.477Z,22.10
2018-03-16T10:48:21.634Z,23.00
2018-03-16T10:49:21.771Z,24.80
2018-03-16T10:50:21.919Z,26.60
2018-03-16T10:51:22.077Z,23.40
2018-03-16T10:52:22.217Z,24.00
2018-03-16T10:53:22.364Z,22.90
2018-03-16T10:54:22.510Z,24.10
2018-03-16T10:55:22.657Z,21.90
2018-03-16T10:56:22.806Z,25.00
2018-03-16T10:57:22.953Z,22.40
2018-03-16T10:58:23.112Z,24.30
2018-03-16T10:59:23.249Z,24.20
2018-03-16T11:00:23.397Z,22.80
2018-03-16T11:01:23.546Z,26.10
2018-03-16T11:02:23.692Z,25.80
2018-03-16T11:03:23.841Z,22.20
2018-03-16T11:04:23.987Z,26.00
2018-03-16T11:05:24.133Z,22.90
2018-03-16T11:06:24.281Z,24.30
2018-03-16T11:07:24.430Z,25.40
2018-03-16T11:08:24.578Z,25.00
2018-03-16T11:09:24.805Z,23.40
2018-03-16T11:10:24.874Z,24.30
2018-03-16T11:11:25.022Z,25.70
2018-03-16T11:12:25.167Z,26.10
2018-03-16T11:13:25.312Z,22.00
2018-03-16T11:14:25.460Z,23.00
2018-03-16T11:15:25.607Z,22.30
2018-03-16T11:16:25.753Z,22.50
2018-03-16T11:17:25.898Z,23.00
2018-03-16T11:18:26.048Z,26.30
2018-03-16T11:19:26.198Z,22.40
2018-03-16T11:20:26.347Z,24.40
2018-03-16T11:21:26.492Z,25.80
2018-03-16T11:22:26.638Z,26.60
2018-03-16T11:23:26.828Z,27.80
2018-03-16T11:24:26.931Z,30.60
2018-03-16T11:25:27.076Z,29.80
2018-03-16T11:26:27.221Z,26.70
2018-03-16T11:27:27.362Z,26.60
2018-03-16T11:28:27.516Z,28.60
2018-03-16T11:29:27.669Z,28.20
2018-03-16T11:30:27.812Z,25.60
2018-03-16T11:31:27.964Z,26.40
2018-03-16T11:32:28.110Z,29.30
2018-03-16T11:33:28.256Z,29.00
2018-03-16T11:34:28.407Z,32.00
2018-03-16T11:35:28.552Z,29.10
2018-03-16T11:36:28.698Z,26.80
2018-03-16T11:37:28.871Z,29.70
2018-03-16T11:38:28.995Z,27.90
2018-03-16T11:39:29.141Z,26.60
2018-03-16T11:40:29.287Z,29.90
2018-03-16T11:41:29.433Z,29.20
2018-03-16T11:42:29.582Z,33.40
2018-03-16T11:43:29.730Z,29.80
2018-03-16T11:44:29.877Z,30.30
2018-03-16T11:45:30.024Z,30.20
2018-03-16T11:46:30.215Z,32.20
2018-03-16T11:47:30.311Z,29.00
2018-03-16T11:48:30.448Z,28.50
2018-03-16T11:49:30.589Z,28.80
2018-03-16T11:50:30.736Z,31.30
2018-03-16T11:51:30.881Z,34.60
2018-03-16T11:52:31.028Z,32.40
2018-03-16T11:53:31.174Z,31.50
2018-03-16T11:54:31.319Z,31.90
2018-03-16T11:55:31.468Z,31.00
2018-03-16T11:56:31.616Z,34.30
2018-03-16T11:57:31.761Z,31.60
2018-03-16T11:58:31.907Z,35.10
2018-03-16T11:59:32.054Z,29.50
2018-03-16T12:00:32.201Z,35.00
2018-03-16T12:01:32.353Z,26.30
2018-03-16T12:02:32.498Z,33.00
2018-03-16T12:03:32.643Z,29.80
2018-03-16T12:04:32.791Z,30.00
2018-03-16T12:05:32.939Z,32.20
2018-03-16T12:06:33.087Z,27.60
2018-03-16T12:07:33.235Z,29.70
2018-03-16T12:08:33.431Z,27.60
2018-03-16T12:09:33.546Z,26.40
2018-03-16T12:10:33.669Z,29.90
2018-03-16T12:11:33.839Z,31.30
2018-03-16T12:12:33.954Z,29.40
2018-03-16T12:13:34.130Z,24.20
2018-03-16T12:14:34.243Z,27.20
2018-03-16T12:15:34.402Z,26.30
2018-03-16T12:16:34.612Z,28.50
2018-03-16T12:17:34.668Z,26.00
2018-03-16T12:18:34.815Z,29.50
2018-03-16T12:19:34.965Z,27.30
2018-03-16T12:20:35.112Z,31.00
2018-03-16T12:21:35.309Z,28.50
2018-03-16T12:22:35.414Z,33.30
2018-03-16T12:23:35.555Z,28.30
2018-03-16T12:24:35.708Z,25.60
2018-03-16T12:25:35.858Z,30.20
2018-03-16T12:26:36.003Z,31.00
2018-03-16T12:27:36.153Z,31.90
2018-03-16T12:28:49.574Z,28.50
2018-03-16T12:29:36.449Z,28.90
2018-03-16T12:30:36.601Z,27.20
2018-03-16T12:31:36.747Z,25.90
2018-03-16T12:32:36.900Z,26.50
2018-03-16T12:33:37.041Z,30.90
2018-03-16T12:34:37.236Z,28.00
2018-03-16T12:35:37.328Z,27.40
2018-03-16T12:36:37.478Z,29.00
2018-03-16T12:37:37.625Z,28.10
2018-03-16T12:38:37.772Z,25.90
2018-03-16T12:39:37.919Z,26.00
2018-03-16T12:40:38.077Z,27.40
2018-03-16T12:41:38.212Z,25.20
2018-03-16T12:42:38.358Z,26.20
2018-03-16T12:43:38.504Z,29.60
2018-03-16T12:44:38.650Z,25.70
2018-03-16T12:45:38.802Z,25.90
2018-03-16T12:46:38.945Z,31.40
2018-03-16T12:47:39.093Z,25.50
2018-03-16T12:48:39.241Z,22.30
2018-03-16T12:49:39.389Z,24.90
2018-03-16T12:50:39.560Z,25.30
2018-03-16T12:51:42.267Z,24.40
2018-03-16T12:52:39.859Z,28.50
2018-03-16T12:53:40.002Z,27.90
2018-03-16T12:54:40.149Z,24.30